createdAt,value
2018-03-02T00:00:31.127Z,31.60
2018-03-02T00:02:27.060Z,31.10
2018-03-02T00:03:27.070Z,28.90
2018-03-02T00:05:23.010Z,30.40
2018-03-02T00:06:22.942Z,30.80
2018-03-02T00:08:18.825Z,26.80
2018-03-02T00:09:19.385Z,28.60
2018-03-02T00:11:14.780Z,30.30
2018-03-02T00:12:15.251Z,30.40
2018-03-02T00:14:11.136Z,30.10
2018-03-02T00:15:11.140Z,31.00
2018-03-02T00:17:07.074Z,31.00
2018-03-02T00:18:08.056Z,31.00
2018-03-02T00:20:02.458Z,31.00
2018-03-02T00:21:02.434Z,28.60
2018-03-02T00:22:58.347Z,30.20
2018-03-02T00:23:58.341Z,31.70
2018-03-02T00:25:55.290Z,28.90
2018-03-02T00:26:54.246Z,31.20
2018-03-02T00:28:50.126Z,28.70
2018-03-02T00:29:50.143Z,29.60
2018-03-02T00:31:46.038Z,31.10
2018-03-02T00:32:46.015Z,30.10
2018-03-02T00:34:41.914Z,32.60
2018-03-02T00:35:41.945Z,32.00
2018-03-02T00:37:39.834Z,29.30
2018-03-02T00:38:39.812Z,30.40
2018-03-02T00:40:35.761Z,33.00
2018-03-02T00:41:35.715Z,33.80
2018-03-02T00:43:32.150Z,31.10
2018-03-02T00:44:32.158Z,30.90
2018-03-02T00:46:28.052Z,27.50
2018-03-02T00:47:27.532Z,28.20
2018-03-02T00:49:23.974Z,31.70
2018-03-02T00:50:23.432Z,31.80
2018-03-02T00:52:19.338Z,28.90
2018-03-02T00:53:19.346Z,30.60
2018-03-02T00:55:15.769Z,32.10
2018-03-02T00:56:15.236Z,33.20
2018-03-02T00:58:11.135Z,33.20
2018-03-02T00:59:11.124Z,28.80
2018-03-02T01:01:07.043Z,36.80
2018-03-02T01:02:07.026Z,31.10
2018-03-02T01:04:03.467Z,29.90
2018-03-02T01:05:02.917Z,31.40
2018-03-02T01:06:59.370Z,33.00
2018-03-02T01:07:59.350Z,31.90
2018-03-02T01:09:55.258Z,34.70
2018-03-02T01:10:56.242Z,34.40
2018-03-02T01:12:51.173Z,30.60
2018-03-02T01:13:51.608Z,31.40
2018-03-02T01:15:47.080Z,33.90
2018-03-02T01:16:46.572Z,32.70
2018-03-02T01:18:42.998Z,31.20
2018-03-02T01:19:42.421Z,32.70
2018-03-02T01:21:38.904Z,29.50
2018-03-02T01:22:39.290Z,30.90
2018-03-02T01:24:35.254Z,33.60
2018-03-02T01:25:34.240Z,33.10
2018-03-02T01:27:30.379Z,32.30
2018-03-02T01:28:30.364Z,32.70
2018-03-02T01:30:26.293Z,30.10
2018-03-02T01:31:26.255Z,32.60
2018-03-02T01:33:22.182Z,35.20
2018-03-02T01:34:22.224Z,35.30
2018-03-02T01:36:18.126Z,30.10
2018-03-02T01:37:18.605Z,31.60
2018-03-02T01:39:14.032Z,33.80
2018-03-02T01:40:13.976Z,29.30
2018-03-02T01:42:09.939Z,36.30
2018-03-02T01:43:09.882Z,32.80
2018-03-02T01:45:06.324Z,30.20
2018-03-02T01:46:05.783Z,35.70
2018-03-02T01:48:02.716Z,35.10
2018-03-02T01:49:01.659Z,33.70
2018-03-02T01:51:00.096Z,32.00
2018-03-02T01:51:59.564Z,36.60
2018-03-02T01:53:55.475Z,31.60
2018-03-02T01:54:55.450Z,35.60
2018-03-02T01:56:51.893Z,33.90
2018-03-02T01:57:51.890Z,30.20
2018-03-02T01:59:47.813Z,35.20
2018-03-02T02:00:47.821Z,35.50
2018-03-02T02:02:43.209Z,31.30
2018-03-02T02:03:43.193Z,33.10
2018-03-02T02:05:39.152Z,34.80
2018-03-02T02:06:39.088Z,35.00
2018-03-02T02:08:35.554Z,35.30
2018-03-02T02:09:34.949Z,30.80
2018-03-02T02:11:31.915Z,34.70
2018-03-02T02:12:30.862Z,38.50
2018-03-02T02:14:27.294Z,32.70
2018-03-02T02:15:26.768Z,32.90
2018-03-02T02:17:22.684Z,35.20
2018-03-02T02:18:22.670Z,32.60
2018-03-02T02:20:18.632Z,31.80
2018-03-02T02:21:18.618Z,34.00
2018-03-02T02:23:14.541Z,34.80
2018-03-02T02:24:14.497Z,30.70
2018-03-02T02:26:10.420Z,32.40
2018-03-02T02:28:26.849Z,31.10
2018-03-02T02:29:26.842Z,31.80
2018-03-02T02:31:22.251Z,37.50
2018-03-02T02:32:22.220Z,35.10
2018-03-02T02:34:18.660Z,34.10
2018-03-02T02:35:18.154Z,36.20
2018-03-02T02:37:14.035Z,34.20
2018-03-02T02:38:14.022Z,33.30
2018-03-02T02:40:09.947Z,37.70
2018-03-02T02:41:10.463Z,38.30
2018-03-02T02:43:05.845Z,34.20
2018-03-02T02:44:06.365Z,36.00
2018-03-02T02:46:01.761Z,33.70
2018-03-02T02:47:01.748Z,37.00
2018-03-02T02:48:57.685Z,36.50
2018-03-02T02:49:57.615Z,35.10
2018-03-02T02:51:53.587Z,34.40
2018-03-02T02:52:53.563Z,31.60
2018-03-02T02:54:49.445Z,33.30
2018-03-02T02:55:49.441Z,34.50
2018-03-02T02:57:45.369Z,35.10
2018-03-02T02:58:45.354Z,32.40
2018-03-02T03:00:41.260Z,31.90
2018-03-02T03:01:41.792Z,35.10
2018-03-02T03:03:37.189Z,35.40
2018-03-02T03:04:37.165Z,32.80
2018-03-02T03:06:33.066Z,36.80
2018-03-02T03:07:33.064Z,35.10
2018-03-02T03:09:29.018Z,35.50
2018-03-02T03:10:28.964Z,34.40
2018-03-02T03:12:24.914Z,35.20
2018-03-02T03:13:25.421Z,32.20
2018-03-02T03:15:20.780Z,36.50
2018-03-02T03:16:20.757Z,39.40
2018-03-02T03:18:17.707Z,34.00
2018-03-02T03:19:16.646Z,36.70
2018-03-02T03:21:14.106Z,32.10
2018-03-02T03:22:12.575Z,35.10
2018-03-02T03:24:08.498Z,34.10
2018-03-02T03:25:08.481Z,35.30
2018-03-02T03:27:04.413Z,37.20
2018-03-02T03:28:04.381Z,33.20
2018-03-02T03:30:00.343Z,37.10
2018-03-02T03:31:00.290Z,35.30
2018-03-02T03:32:56.745Z,33.90
2018-03-02T03:33:56.204Z,36.90
2018-03-02T03:35:52.169Z,35.30
2018-03-02T03:36:52.109Z,33.90
2018-03-02T03:38:48.569Z,32.50
2018-03-02T03:39:48.573Z,36.50
2018-03-02T03:41:44.446Z,34.90
2018-03-02T03:42:44.436Z,35.20
2018-03-02T03:44:40.350Z,37.30
2018-03-02T03:45:39.819Z,35.50
2018-03-02T03:47:35.779Z,34.60
2018-03-02T03:48:36.263Z,37.30
2018-03-02T03:50:31.683Z,36.90
2018-03-02T03:51:31.663Z,39.40
2018-03-02T03:53:27.564Z,37.50
2018-03-02T03:54:27.577Z,35.10
2018-03-02T03:56:23.514Z,36.00
2018-03-02T03:57:23.483Z,35.80
2018-03-02T03:59:19.416Z,37.40
2018-03-02T04:00:19.384Z,35.20
2018-03-02T04:02:15.300Z,37.80
2018-03-02T04:03:15.296Z,39.80
2018-03-02T04:05:11.220Z,36.60
2018-03-02T04:06:11.214Z,35.50
2018-03-02T04:08:07.092Z,38.80
2018-03-02T04:09:07.088Z,36.00
2018-03-02T04:11:04.024Z,39.20
2018-03-02T04:12:03.030Z,38.20
2018-03-02T04:13:58.926Z,36.40
2018-03-02T04:14:58.920Z,37.30
2018-03-02T04:16:54.847Z,37.90
2018-03-02T04:17:55.364Z,38.20
2018-03-02T04:19:50.791Z,34.80
2018-03-02T04:20:50.727Z,35.10
2018-03-02T04:22:46.646Z,36.30
2018-03-02T04:23:46.617Z,41.50
2018-03-02T04:25:43.084Z,37.80
2018-03-02T04:26:42.556Z,40.30
2018-03-02T04:28:38.511Z,35.70
2018-03-02T04:29:38.409Z,35.70
2018-03-02T04:31:34.848Z,38.20
2018-03-02T04:32:34.318Z,46.90
2018-03-02T04:34:30.271Z,34.90
2018-03-02T04:35:30.226Z,37.20
2018-03-02T04:37:26.170Z,36.40
2018-03-02T04:38:26.140Z,39.80
2018-03-02T04:40:22.609Z,38.10
2018-03-02T04:41:22.024Z,38.70
2018-03-02T04:43:17.947Z,34.80
2018-03-02T04:44:17.935Z,35.00
2018-03-02T04:46:13.829Z,37.20
2018-03-02T04:47:15.382Z,33.20
2018-03-02T04:49:09.751Z,37.60
2018-03-02T04:50:09.732Z,37.00
2018-03-02T04:52:05.682Z,39.80
2018-03-02T04:53:06.169Z,40.50
2018-03-02T04:55:01.575Z,41.30
2018-03-02T04:56:01.546Z,38.70
2018-03-02T04:57:57.511Z,38.80
2018-03-02T04:58:57.465Z,36.10
2018-03-02T05:00:53.908Z,37.20
2018-03-02T05:01:53.373Z,37.30
2018-03-02T05:03:49.311Z,37.30
2018-03-02T05:04:49.286Z,37.00
2018-03-02T05:06:45.214Z,36.50
2018-03-02T05:07:45.200Z,38.20
2018-03-02T05:09:42.142Z,38.10
2018-03-02T05:10:41.127Z,38.70
2018-03-02T05:12:37.033Z,36.60
2018-03-02T05:13:37.033Z,38.60
2018-03-02T05:15:32.957Z,39.30
2018-03-02T05:16:32.935Z,34.30
2018-03-02T05:18:28.897Z,37.90
2018-03-02T05:19:28.802Z,34.50
2018-03-02T05:21:24.769Z,37.60
2018-03-02T05:22:26.263Z,37.20
2018-03-02T05:24:20.635Z,39.30
2018-03-02T05:25:20.623Z,41.60
2018-03-02T05:27:16.546Z,39.30
2018-03-02T05:28:16.529Z,37.30
2018-03-02T05:30:12.463Z,36.60
2018-03-02T05:31:12.446Z,42.00
2018-03-02T05:33:10.461Z,35.50
2018-03-02T05:34:10.458Z,37.80
2018-03-02T05:36:06.902Z,38.50
2018-03-02T05:37:06.388Z,37.60
2018-03-02T05:39:02.238Z,37.20
2018-03-02T05:40:02.250Z,36.20
2018-03-02T05:41:58.165Z,41.70
2018-03-02T05:42:58.154Z,40.30
2018-03-02T05:44:56.413Z,37.40
2018-03-02T05:45:55.057Z,35.50
2018-03-02T05:47:50.953Z,39.50
2018-03-02T05:48:51.482Z,36.40
2018-03-02T05:50:47.378Z,41.50
2018-03-02T05:51:46.866Z,40.70
2018-03-02T05:53:42.809Z,43.50
2018-03-02T05:54:43.320Z,40.40
2018-03-02T05:56:38.692Z,44.80
2018-03-02T05:57:38.675Z,40.20
2018-03-02T05:59:34.581Z,38.70
2018-03-02T06:00:34.596Z,38.80
2018-03-02T06:02:31.524Z,41.80
2018-03-02T06:03:30.501Z,41.40
2018-03-02T06:05:26.965Z,37.60
2018-03-02T06:06:26.406Z,40.00
2018-03-02T06:08:22.278Z,41.00
2018-03-02T06:09:22.277Z,37.60
2018-03-02T06:11:18.190Z,43.00
2018-03-02T06:12:18.180Z,44.60
2018-03-02T06:14:14.626Z,38.70
2018-03-02T06:15:14.626Z,44.10
2018-03-02T06:17:10.531Z,38.10
2018-03-02T06:18:10.108Z,39.10
2018-03-02T06:20:05.922Z,42.20
2018-03-02T06:21:05.906Z,42.90
2018-03-02T06:23:01.834Z,38.50
2018-03-02T06:24:01.825Z,37.80
2018-03-02T06:25:57.737Z,42.00
2018-03-02T06:28:14.161Z,43.20
2018-03-02T06:29:14.161Z,40.60
2018-03-02T06:31:10.510Z,38.50
2018-03-02T06:32:10.483Z,43.40
2018-03-02T06:34:06.446Z,42.40
2018-03-02T06:35:06.935Z,42.00
2018-03-02T06:37:02.346Z,39.50
2018-03-02T06:38:02.292Z,41.10
2018-03-02T06:39:59.735Z,45.20
2018-03-02T06:40:58.212Z,44.40
2018-03-02T06:42:54.151Z,39.20
2018-03-02T06:43:54.118Z,36.30
2018-03-02T06:45:50.073Z,42.00
2018-03-02T06:46:50.015Z,43.20
2018-03-02T06:48:46.449Z,43.10
2018-03-02T06:49:45.877Z,42.50
2018-03-02T06:51:42.818Z,37.30
2018-03-02T06:52:41.784Z,40.20
2018-03-02T06:54:38.736Z,41.90
2018-03-02T06:55:37.745Z,42.00
2018-03-02T06:57:33.666Z,43.30
2018-03-02T06:58:33.609Z,43.00
2018-03-02T07:00:29.516Z,41.70
2018-03-02T07:01:31.070Z,47.20
2018-03-02T07:03:26.452Z,36.30
2018-03-02T07:04:25.940Z,41.90
2018-03-02T07:06:21.400Z,39.90
2018-03-02T07:07:21.335Z,41.10
2018-03-02T07:09:18.767Z,43.60
2018-03-02T07:10:18.223Z,41.50
2018-03-02T07:12:14.672Z,47.90
2018-03-02T07:13:14.126Z,49.30
2018-03-02T07:15:10.066Z,40.70
2018-03-02T07:16:10.565Z,42.90
2018-03-02T07:18:05.992Z,43.60
2018-03-02T07:19:06.062Z,38.10
2018-03-02T07:21:03.338Z,46.10
2018-03-02T07:22:02.465Z,47.10
2018-03-02T07:23:59.226Z,40.40
2018-03-02T07:24:59.900Z,43.10
2018-03-02T07:26:55.161Z,46.50
2018-03-02T07:27:55.141Z,41.60
2018-03-02T07:30:08.963Z,44.20
2018-03-02T07:32:21.766Z,47.60
2018-03-02T07:33:21.728Z,41.60
2018-03-02T07:35:29.712Z,41.50
2018-03-02T07:37:33.574Z,40.80
2018-03-02T07:38:33.561Z,38.90
2018-03-02T07:40:29.499Z,41.00
2018-03-02T07:41:29.469Z,44.60
2018-03-02T07:43:25.911Z,40.50
2018-03-02T07:44:25.375Z,44.10
2018-03-02T07:46:21.818Z,41.50
2018-03-02T07:47:21.277Z,41.50
2018-03-02T07:49:19.795Z,37.10
2018-03-02T07:50:19.291Z,37.10
2018-03-02T07:52:16.709Z,42.30
2018-03-02T07:53:15.214Z,45.80
2018-03-02T07:55:12.664Z,45.00
2018-03-02T07:56:11.660Z,41.10
2018-03-02T07:58:08.567Z,40.90
2018-03-02T07:59:07.995Z,39.90
2018-03-02T08:01:04.444Z,42.60
2018-03-02T08:02:03.980Z,44.80
2018-03-02T08:04:00.331Z,43.30
2018-03-02T08:05:00.336Z,45.30
2018-03-02T08:06:55.748Z,39.10
2018-03-02T08:07:55.698Z,41.50
2018-03-02T08:09:51.619Z,39.80
2018-03-02T08:10:51.603Z,37.20
2018-03-02T08:12:48.148Z,43.20
2018-03-02T08:13:47.513Z,43.00
2018-03-02T08:15:43.943Z,45.90
2018-03-02T08:16:43.949Z,49.70
2018-03-02T08:18:39.321Z,43.20
2018-03-02T08:19:39.294Z,45.80
2018-03-02T08:21:35.218Z,41.80
2018-03-02T08:22:35.203Z,45.10
2018-03-02T08:24:31.160Z,41.00
2018-03-02T08:25:31.113Z,47.90
2018-03-02T08:27:27.061Z,37.80
2018-03-02T08:28:27.016Z,41.40
2018-03-02T08:30:22.973Z,41.00
2018-03-02T08:31:22.942Z,39.80
2018-03-02T08:33:18.897Z,45.80
2018-03-02T08:34:18.865Z,49.10
2018-03-02T08:36:15.298Z,42.10
2018-03-02T08:38:31.210Z,38.80
2018-03-02T08:39:30.691Z,41.70
2018-03-02T08:41:26.651Z,40.10
2018-03-02T08:42:26.614Z,38.00
2018-03-02T08:44:23.033Z,42.10
2018-03-02T08:45:22.518Z,40.50
2018-03-02T08:47:18.442Z,38.50
2018-03-02T08:48:18.446Z,37.30
2018-03-02T08:50:14.877Z,41.70
2018-03-02T08:51:14.352Z,42.60
2018-03-02T08:53:10.290Z,47.50
2018-03-02T08:54:10.257Z,44.20
2018-03-02T08:56:06.684Z,44.50
2018-03-02T08:57:06.898Z,46.00
2018-03-02T08:59:02.604Z,47.10
2018-03-02T09:00:02.055Z,44.90
2018-03-02T09:01:57.963Z,45.70
2018-03-02T09:02:57.951Z,45.70
2018-03-02T09:04:53.860Z,43.30
2018-03-02T09:05:53.851Z,42.30
2018-03-02T09:07:49.792Z,43.40
2018-03-02T09:08:49.780Z,38.20
2018-03-02T09:10:45.751Z,41.30
2018-03-02T09:11:45.745Z,39.30
2018-03-02T09:13:41.618Z,42.60
2018-03-02T09:14:41.619Z,40.80
2018-03-02T09:16:38.085Z,39.00
2018-03-02T09:17:37.514Z,45.30
2018-03-02T09:19:33.500Z,43.20
2018-03-02T09:20:33.441Z,39.50
2018-03-02T09:22:29.336Z,41.00
2018-03-02T09:23:29.344Z,45.10
2018-03-02T09:25:25.769Z,39.90
2018-03-02T09:27:53.847Z,39.40
2018-03-02T09:28:53.840Z,39.40
2018-03-02T09:30:49.799Z,41.80
2018-03-02T09:31:49.745Z,42.80
2018-03-02T09:33:46.242Z,41.20
2018-03-02T09:34:45.708Z,40.10
2018-03-02T09:36:41.626Z,39.80
2018-03-02T09:37:41.607Z,36.20
2018-03-02T09:39:37.503Z,41.90
2018-03-02T09:40:37.506Z,43.20
2018-03-02T09:42:33.434Z,41.50
2018-03-02T09:43:33.413Z,41.50
2018-03-02T09:45:29.320Z,42.90
2018-03-02T09:46:29.326Z,44.60
2018-03-02T09:48:25.768Z,40.90
2018-03-02T09:49:25.211Z,42.50
2018-03-02T09:51:21.645Z,42.40
2018-03-02T09:52:21.639Z,44.60
2018-03-02T09:54:17.570Z,45.40
2018-03-02T09:55:17.044Z,41.30
2018-03-02T09:57:12.995Z,40.30
2018-03-02T09:58:12.981Z,38.90
2018-03-02T10:00:08.896Z,43.70
2018-03-02T10:01:08.922Z,43.40
2018-03-02T10:03:05.828Z,44.20
2018-03-02T10:04:05.341Z,41.80
2018-03-02T10:06:00.768Z,41.20
2018-03-02T10:07:00.715Z,46.40
2018-03-02T10:08:56.696Z,44.50
2018-03-02T10:09:56.595Z,54.70
2018-03-02T10:11:52.544Z,41.00
2018-03-02T10:12:52.533Z,44.40
2018-03-02T10:14:48.487Z,40.70
2018-03-02T10:15:48.441Z,40.60
2018-03-02T10:17:45.387Z,42.60
2018-03-02T10:18:44.393Z,40.20
2018-03-02T10:20:40.338Z,39.60
2018-03-02T10:21:40.320Z,41.50
2018-03-02T10:23:36.229Z,42.80
2018-03-02T10:24:36.233Z,43.00
2018-03-02T10:26:32.128Z,42.30
2018-03-02T10:27:32.122Z,42.20
2018-03-02T10:29:28.572Z,42.00
2018-03-02T10:30:28.028Z,40.70
2018-03-02T10:32:23.978Z,42.40
2018-03-02T10:33:23.952Z,44.70
2018-03-02T10:35:21.923Z,38.60
2018-03-02T10:36:21.883Z,41.10
2018-03-02T10:38:18.302Z,43.10
2018-03-02T10:39:17.758Z,40.40
2018-03-02T10:41:13.715Z,37.70
2018-03-02T10:42:13.727Z,43.50
2018-03-02T10:44:09.608Z,42.00
2018-03-02T10:45:09.598Z,41.00
2018-03-02T10:47:05.525Z,44.80
2018-03-02T10:48:05.508Z,41.80
2018-03-02T10:50:01.476Z,40.60
2018-03-02T10:51:01.431Z,40.10
2018-03-02T10:53:21.003Z,40.90
2018-03-02T10:54:07.305Z,42.70
2018-03-02T10:56:26.117Z,40.20
2018-03-02T10:57:21.404Z,39.40
2018-03-02T10:59:28.731Z,45.50
2018-03-02T11:00:27.301Z,43.40
2018-03-02T11:02:23.752Z,41.40
2018-03-02T11:03:23.219Z,41.20
2018-03-02T11:05:19.140Z,39.60
2018-03-02T11:06:19.146Z,42.70
2018-03-02T11:08:12.510Z,40.50
2018-03-02T11:09:12.523Z,40.00
2018-03-02T11:11:08.466Z,43.30
2018-03-02T11:12:08.424Z,45.40
2018-03-02T11:14:05.381Z,43.50
2018-03-02T11:15:04.355Z,42.10
2018-03-02T11:17:00.310Z,41.70
2018-03-02T11:18:00.297Z,40.00
2018-03-02T11:19:57.242Z,40.40
2018-03-02T11:20:56.240Z,45.10
2018-03-02T11:22:52.179Z,42.90
2018-03-02T11:23:52.128Z,43.20
2018-03-02T11:25:48.078Z,38.90
2018-03-02T11:26:48.058Z,38.20
2018-03-02T11:28:43.936Z,40.00
2018-03-02T11:29:43.932Z,42.00
2018-03-02T11:31:39.864Z,46.50
2018-03-02T11:32:39.855Z,42.80
2018-03-02T11:34:35.792Z,42.40
2018-03-02T11:35:37.300Z,40.80
2018-03-02T11:37:31.767Z,40.70
2018-03-02T11:38:32.234Z,41.90
2018-03-02T11:40:27.673Z,41.30
2018-03-02T11:41:28.162Z,42.50
2018-03-02T11:43:25.096Z,41.10
2018-03-02T11:44:24.088Z,42.00
2018-03-02T11:46:20.005Z,40.90
2018-03-02T11:47:19.487Z,42.80
2018-03-02T11:49:15.399Z,44.00
2018-03-02T11:50:15.936Z,41.40
2018-03-02T11:52:11.356Z,40.00
2018-03-02T11:53:11.326Z,42.40
2018-03-02T11:55:08.193Z,42.00
2018-03-02T11:56:07.234Z,40.40
2018-03-02T11:58:03.191Z,41.80
2018-03-02T11:59:03.159Z,38.40
2018-03-02T12:00:59.634Z,40.70
2018-03-02T12:01:59.081Z,43.40
2018-03-02T12:03:55.048Z,40.10
2018-03-02T12:04:55.002Z,40.00
2018-03-02T12:06:52.455Z,41.30
2018-03-02T12:07:51.937Z,39.30
2018-03-02T12:09:47.846Z,37.40
2018-03-02T12:10:47.868Z,40.80
2018-03-02T12:12:43.782Z,40.40
2018-03-02T12:13:43.763Z,42.40
2018-03-02T12:15:40.236Z,47.30
2018-03-02T12:16:39.684Z,41.80
2018-03-02T12:18:35.602Z,41.70
2018-03-02T12:19:35.571Z,40.40
2018-03-02T12:21:31.541Z,42.50
2018-03-02T12:22:32.091Z,42.50
2018-03-02T12:24:27.461Z,41.40
2018-03-02T12:25:27.432Z,39.80
2018-03-02T12:27:21.875Z,44.00
2018-03-02T12:28:21.925Z,41.90
2018-03-02T12:30:19.814Z,44.10
2018-03-02T12:31:17.814Z,42.60
2018-03-02T12:33:13.772Z,39.70
2018-03-02T12:34:14.252Z,37.50
2018-03-02T12:36:09.730Z,39.50
2018-03-02T12:37:09.684Z,35.30
2018-03-02T12:39:05.600Z,37.20
2018-03-02T12:40:05.594Z,39.90
2018-03-02T12:42:01.544Z,38.40
2018-03-02T12:43:01.522Z,35.90
2018-03-02T12:44:57.450Z,43.40
2018-03-02T12:45:57.451Z,44.60
2018-03-02T12:47:53.901Z,38.20
2018-03-02T12:48:53.376Z,37.90
2018-03-02T12:50:49.846Z,40.90
2018-03-02T12:51:49.457Z,41.00
2018-03-02T12:53:45.429Z,44.50
2018-03-02T12:54:45.393Z,39.80
2018-03-02T12:56:43.843Z,38.80
2018-03-02T12:57:42.318Z,38.70
2018-03-02T12:59:38.256Z,38.60
2018-03-02T13:00:38.233Z,40.10
2018-03-02T13:02:33.178Z,40.00
2018-03-02T13:03:32.659Z,37.20
2018-03-02T13:05:29.127Z,43.20
2018-03-02T13:06:28.610Z,42.00
2018-03-02T13:08:24.563Z,43.00
2018-03-02T13:09:25.081Z,41.50
2018-03-02T13:11:20.466Z,37.80
2018-03-02T13:12:20.456Z,41.30
2018-03-02T13:14:16.370Z,41.30
2018-03-02T13:15:16.908Z,41.60
2018-03-02T13:17:13.234Z,41.80
2018-03-02T13:18:12.308Z,39.60
2018-03-02T13:20:09.287Z,44.20
2018-03-02T13:21:08.216Z,39.30
2018-03-02T13:23:04.679Z,39.50
2018-03-02T13:24:04.133Z,37.40
2018-03-02T13:26:00.096Z,40.80
2018-03-02T13:27:00.060Z,40.60
2018-03-02T13:28:55.955Z,41.20
2018-03-02T13:29:56.509Z,43.50
2018-03-02T13:31:51.880Z,39.00
2018-03-02T13:32:51.883Z,41.40
2018-03-02T13:34:47.792Z,36.70
2018-03-02T13:35:47.796Z,39.20
2018-03-02T13:37:44.239Z,41.90
2018-03-02T13:38:44.248Z,40.60
2018-03-02T13:40:39.625Z,36.40
2018-03-02T13:41:39.624Z,39.50
2018-03-02T13:43:35.609Z,41.90
2018-03-02T13:44:35.545Z,41.50
2018-03-02T13:46:33.500Z,42.10
2018-03-02T13:47:33.467Z,39.60
2018-03-02T13:49:29.430Z,41.90
2018-03-02T13:50:29.399Z,42.70
2018-03-02T13:52:25.351Z,41.50
2018-03-02T13:53:25.327Z,41.60
2018-03-02T13:55:21.366Z,46.90
2018-03-02T13:56:21.247Z,44.50
2018-03-02T13:58:18.506Z,37.50
2018-03-02T13:59:18.480Z,42.50
2018-03-02T14:01:15.438Z,38.20
2018-03-02T14:02:15.937Z,40.80
2018-03-02T14:04:11.058Z,42.30
2018-03-02T14:05:10.350Z,42.90
2018-03-02T14:07:16.470Z,40.00
2018-03-02T14:08:14.769Z,40.60
2018-03-02T14:10:10.698Z,43.70
2018-03-02T14:11:10.699Z,44.40
2018-03-02T14:13:06.669Z,39.30
2018-03-02T14:14:06.656Z,43.90
2018-03-02T14:16:03.607Z,43.10
2018-03-02T14:17:03.104Z,43.50
2018-03-02T14:18:59.037Z,43.90
2018-03-02T14:20:00.045Z,41.30
2018-03-02T14:21:54.943Z,41.40
2018-03-02T14:22:54.404Z,39.40
2018-03-02T14:24:50.383Z,40.20
2018-03-02T14:25:50.332Z,41.80
2018-03-02T14:27:47.260Z,39.90
2018-03-02T14:28:46.775Z,44.70
2018-03-02T14:30:42.175Z,44.90
2018-03-02T14:31:42.703Z,44.90
2018-03-02T14:33:59.624Z,43.60
2018-03-02T14:34:38.616Z,44.60
2018-03-02T14:36:34.525Z,38.80
2018-03-02T14:37:34.018Z,43.40
2018-03-02T14:39:30.475Z,42.80
2018-03-02T14:40:29.962Z,43.00
2018-03-02T14:42:25.898Z,45.00
2018-03-02T14:43:25.885Z,46.40
2018-03-02T14:45:20.330Z,44.20
2018-03-02T14:46:20.305Z,43.40
2018-03-02T14:48:16.270Z,44.40
2018-03-02T14:49:16.182Z,48.50
2018-03-02T14:51:12.632Z,44.30
2018-03-02T14:52:12.101Z,42.40
2018-03-02T14:54:07.532Z,47.30
2018-03-02T14:55:06.528Z,46.30
2018-03-02T14:57:02.479Z,39.20
2018-03-02T14:58:03.009Z,42.30
2018-03-02T15:00:00.138Z,45.10
2018-03-02T15:01:00.058Z,44.50
2018-03-02T15:02:57.039Z,44.80
2018-03-02T15:03:57.018Z,46.00
2018-03-02T15:05:52.495Z,44.80
2018-03-02T15:06:52.508Z,42.30
2018-03-02T15:08:49.949Z,44.30
2018-03-02T15:09:48.391Z,43.10
2018-03-02T15:11:43.347Z,43.20
2018-03-02T15:12:44.343Z,45.20
2018-03-02T15:14:38.799Z,39.60
2018-03-02T15:15:39.379Z,41.20
2018-03-02T15:17:34.743Z,46.10
2018-03-02T15:18:35.640Z,45.50
2018-03-02T15:20:31.155Z,49.80
2018-03-02T15:21:30.619Z,53.00
2018-03-02T15:23:28.605Z,48.60
2018-03-02T15:24:28.575Z,44.20
2018-03-02T15:26:24.794Z,44.90
2018-03-02T15:27:25.509Z,43.60
2018-03-02T15:29:20.968Z,46.00
2018-03-02T15:30:20.448Z,43.70
2018-03-02T15:32:16.411Z,48.10
2018-03-02T15:33:16.939Z,49.10
2018-03-02T15:35:12.815Z,46.70
2018-03-02T15:36:12.285Z,44.10
2018-03-02T15:38:08.187Z,43.10
2018-03-02T15:39:08.179Z,46.00
2018-03-02T15:41:04.653Z,42.20
2018-03-02T15:42:04.104Z,42.60
2018-03-02T15:44:01.048Z,44.90
2018-03-02T15:45:00.538Z,50.40
2018-03-02T15:46:58.951Z,44.20
2018-03-02T15:47:57.001Z,44.90
2018-03-02T15:49:52.992Z,48.50
2018-03-02T15:50:52.930Z,46.00
2018-03-02T15:52:48.847Z,47.70
2018-03-02T15:53:48.843Z,47.90
2018-03-02T15:55:45.303Z,45.80
2018-03-02T15:56:44.761Z,49.80
2018-03-02T15:58:42.238Z,47.40
2018-03-02T15:59:42.215Z,45.40
2018-03-02T16:01:37.461Z,50.20
2018-03-02T16:02:37.935Z,45.60
2018-03-02T16:04:33.850Z,44.90
2018-03-02T16:05:33.865Z,42.30
2018-03-02T16:07:29.306Z,46.00
2018-03-02T16:08:29.250Z,45.90
2018-03-02T16:10:25.694Z,45.90
2018-03-02T16:11:25.701Z,50.10
2018-03-02T16:13:23.279Z,46.00
2018-03-02T16:14:23.273Z,47.40
2018-03-02T16:16:19.207Z,47.60
2018-03-02T16:17:19.169Z,49.10
2018-03-02T16:19:15.089Z,54.00
2018-03-02T16:20:15.084Z,53.00
2018-03-02T16:22:11.051Z,47.00
2018-03-02T16:23:11.015Z,45.50
2018-03-02T16:25:06.960Z,49.10
2018-03-02T16:26:07.462Z,49.10
2018-03-02T16:28:01.400Z,48.80
2018-03-02T16:29:01.329Z,49.80
2018-03-02T16:30:56.270Z,49.70
2018-03-02T16:31:56.284Z,50.30
2018-03-02T16:33:51.673Z,53.70
2018-03-02T16:34:51.668Z,48.20
2018-03-02T16:36:47.666Z,48.90
2018-03-02T16:37:47.561Z,52.30
2018-03-02T16:39:45.038Z,45.30
2018-03-02T16:40:43.480Z,47.00
2018-03-02T16:42:39.451Z,48.40
2018-03-02T16:43:39.406Z,45.00
2018-03-02T16:45:35.842Z,48.30
2018-03-02T16:46:35.329Z,50.50
2018-03-02T16:48:32.274Z,51.90
2018-03-02T16:49:31.206Z,46.40
2018-03-02T16:51:27.639Z,48.70
2018-03-02T16:52:27.116Z,49.90
2018-03-02T16:54:23.074Z,52.00
2018-03-02T16:55:23.083Z,47.00
2018-03-02T16:57:19.017Z,52.20
2018-03-02T16:58:19.004Z,46.40
2018-03-02T17:00:15.464Z,48.00
2018-03-02T17:01:14.926Z,47.90
2018-03-02T17:03:10.834Z,53.90
2018-03-02T17:04:10.868Z,50.20
2018-03-02T17:06:05.773Z,48.60
2018-03-02T17:07:03.818Z,50.70
2018-03-02T17:08:59.687Z,50.70
2018-03-02T17:10:00.253Z,52.60
2018-03-02T17:11:56.137Z,50.00
2018-03-02T17:12:55.604Z,52.90
2018-03-02T17:14:52.072Z,49.10
2018-03-02T17:15:51.522Z,51.80
2018-03-02T17:17:47.460Z,49.00
2018-03-02T17:18:47.439Z,50.00
2018-03-02T17:20:43.405Z,50.30
2018-03-02T17:21:43.902Z,51.50
2018-03-02T17:23:39.802Z,53.50
2018-03-02T17:24:39.292Z,52.00
2018-03-02T17:26:35.216Z,52.30
2018-03-02T17:27:35.188Z,50.00
2018-03-02T17:29:31.124Z,49.80
2018-03-02T17:30:31.112Z,49.20
2018-03-02T17:32:27.042Z,57.30
2018-03-02T17:33:27.053Z,51.60
2018-03-02T17:35:23.996Z,51.80
2018-03-02T17:36:22.973Z,50.30
2018-03-02T17:38:19.414Z,52.00
2018-03-02T17:39:18.866Z,46.90
2018-03-02T17:41:14.803Z,48.20
2018-03-02T17:42:14.761Z,49.00
2018-03-02T17:44:10.706Z,49.10
2018-03-02T17:45:10.688Z,48.70
2018-03-02T17:47:06.677Z,54.70
2018-03-02T17:48:06.613Z,53.40
2018-03-02T17:50:08.086Z,51.70
2018-03-02T17:51:07.100Z,47.60
2018-03-02T17:53:05.486Z,48.00
2018-03-02T17:54:04.981Z,51.20
2018-03-02T17:56:05.436Z,53.00
2018-03-02T17:57:05.908Z,49.20
2018-03-02T17:59:05.004Z,51.20
2018-03-02T18:00:03.528Z,51.20
2018-03-02T18:02:02.896Z,48.60
2018-03-02T18:03:02.402Z,51.30
2018-03-02T18:04:59.044Z,50.40
2018-03-02T18:05:57.401Z,50.00
2018-03-02T18:07:55.450Z,49.90
2018-03-02T18:08:55.445Z,47.60
2018-03-02T18:10:51.896Z,54.20
2018-03-02T18:11:51.370Z,50.70
2018-03-02T18:13:47.348Z,52.10
2018-03-02T18:14:47.297Z,50.60
2018-03-02T18:16:43.744Z,54.70
2018-03-02T18:17:43.730Z,51.80
2018-03-02T18:19:39.115Z,53.60
2018-03-02T18:20:39.129Z,55.50
2018-03-02T18:22:35.072Z,109.40
2018-03-02T18:23:35.028Z,74.40
2018-03-02T18:25:29.491Z,56.50
2018-03-02T18:26:29.973Z,53.50
2018-03-02T18:28:25.417Z,56.30
2018-03-02T18:29:25.897Z,56.20
2018-03-02T18:31:21.807Z,55.80
2018-03-02T18:32:21.270Z,59.40
2018-03-02T18:34:17.206Z,53.80
2018-03-02T18:35:17.198Z,54.40
2018-03-02T18:37:13.148Z,55.60
2018-03-02T18:38:13.658Z,57.70
2018-03-02T18:40:09.069Z,58.80
2018-03-02T18:41:09.565Z,57.30
2018-03-02T18:43:04.983Z,52.80
2018-03-02T18:44:05.502Z,51.60
2018-03-02T18:46:01.412Z,59.90
2018-03-02T18:47:01.426Z,57.40
2018-03-02T18:48:56.799Z,57.50
2018-03-02T18:49:56.785Z,56.00
2018-03-02T18:51:53.220Z,57.70
2018-03-02T18:52:52.710Z,58.50
2018-03-02T18:54:50.676Z,59.00
2018-03-02T18:55:50.632Z,61.50
2018-03-02T18:57:46.550Z,58.80
2018-03-02T18:58:46.542Z,59.50